createdAt,value
2018-02-25T00:00:34.825Z,17.44
2018-02-25T00:01:37.300Z,17.45
2018-02-25T00:02:39.775Z,17.43
2018-02-25T00:03:42.251Z,17.42
2018-02-25T00:04:44.727Z,17.41
2018-02-25T00:05:47.202Z,17.43
2018-02-25T00:06:49.689Z,17.47
2018-02-25T00:07:52.194Z,17.52
2018-02-25T00:08:54.662Z,17.58
2018-02-25T00:09:57.135Z,17.61
2018-02-25T00:10:59.621Z,17.64
2018-02-25T00:12:02.095Z,17.65
2018-02-25T00:13:04.587Z,17.68
2018-02-25T00:14:07.059Z,17.71
2018-02-25T00:15:09.536Z,17.72
2018-02-25T00:16:12.008Z,17.72
2018-02-25T00:17:14.502Z,17.72
2018-02-25T00:18:16.986Z,17.72
2018-02-25T00:19:19.469Z,17.71
2018-02-25T00:20:21.943Z,17.69
2018-02-25T00:21:24.419Z,17.68
2018-02-25T00:22:29.757Z,17.66
2018-02-25T00:23:32.230Z,17.65
2018-02-25T00:24:34.738Z,17.61
2018-02-25T00:25:37.289Z,17.59
2018-02-25T00:26:39.759Z,17.56
2018-02-25T00:27:42.258Z,17.54
2018-02-25T00:28:44.752Z,17.52
2018-02-25T00:29:47.252Z,17.48
2018-02-25T00:30:49.734Z,17.45
2018-02-25T00:31:52.207Z,17.41
2018-02-25T00:32:54.701Z,17.39
2018-02-25T00:33:57.186Z,17.36
2018-02-25T00:34:59.680Z,17.34
2018-02-25T00:36:02.171Z,17.31
2018-02-25T00:37:04.661Z,17.28
2018-02-25T00:38:07.150Z,17.26
2018-02-25T00:39:09.729Z,17.24
2018-02-25T00:40:12.235Z,17.22
2018-02-25T00:41:14.720Z,17.20
2018-02-25T00:42:17.215Z,17.18
2018-02-25T00:43:19.696Z,17.16
2018-02-25T00:44:22.184Z,17.13
2018-02-25T00:45:24.693Z,17.11
2018-02-25T00:46:27.181Z,17.11
2018-02-25T00:47:29.670Z,17.12
2018-02-25T00:48:32.690Z,17.14
2018-02-25T00:49:35.165Z,17.17
2018-02-25T00:50:37.684Z,17.21
2018-02-25T00:51:40.175Z,17.26
2018-02-25T00:52:42.664Z,17.29
2018-02-25T00:53:45.163Z,17.30
2018-02-25T00:54:47.643Z,17.34
2018-02-25T00:55:50.161Z,17.37
2018-02-25T00:56:52.650Z,17.38
2018-02-25T00:57:55.146Z,17.38
2018-02-25T00:58:57.638Z,17.39
2018-02-25T01:00:00.113Z,17.39
2018-02-25T01:01:02.621Z,17.38
2018-02-25T01:02:05.097Z,17.38
2018-02-25T01:03:07.665Z,17.38
2018-02-25T01:04:10.155Z,17.37
2018-02-25T01:05:12.631Z,17.36
2018-02-25T01:06:15.141Z,17.35
2018-02-25T01:07:17.620Z,17.35
2018-02-25T01:08:20.106Z,17.35
2018-02-25T01:09:22.598Z,17.33
2018-02-25T01:10:25.085Z,17.32
2018-02-25T01:11:27.583Z,17.32
2018-02-25T01:12:30.060Z,17.30
2018-02-25T01:13:32.538Z,17.29
2018-02-25T01:14:35.029Z,17.27
2018-02-25T01:15:37.515Z,17.26
2018-02-25T01:16:40.038Z,17.24
2018-02-25T01:17:42.524Z,17.22
2018-02-25T01:18:44.996Z,17.21
2018-02-25T01:19:47.473Z,17.19
2018-02-25T01:20:49.965Z,17.18
2018-02-25T01:21:52.459Z,17.18
2018-02-25T01:22:54.944Z,17.20
2018-02-25T01:23:57.415Z,17.26
2018-02-25T01:24:59.890Z,17.32
2018-02-25T01:26:02.387Z,17.39
2018-02-25T01:27:04.889Z,17.47
2018-02-25T01:28:07.363Z,17.56
2018-02-25T01:29:09.844Z,17.60
2018-02-25T01:30:12.310Z,17.65
2018-02-25T01:31:14.814Z,17.65
2018-02-25T01:32:17.320Z,17.69
2018-02-25T01:33:19.792Z,17.71
2018-02-25T01:34:22.270Z,17.74
2018-02-25T01:35:24.739Z,17.74
2018-02-25T01:36:27.215Z,17.75
2018-02-25T01:37:29.722Z,17.75
2018-02-25T01:38:32.191Z,17.74
2018-02-25T01:39:34.672Z,17.73
2018-02-25T01:40:37.151Z,17.71
2018-02-25T01:41:39.644Z,17.71
2018-02-25T01:42:42.140Z,17.71
2018-02-25T01:43:44.614Z,17.68
2018-02-25T01:44:47.106Z,17.66
2018-02-25T01:45:49.583Z,17.64
2018-02-25T01:46:52.064Z,17.62
2018-02-25T01:47:54.569Z,17.59
2018-02-25T01:48:57.062Z,17.58
2018-02-25T01:49:59.557Z,17.56
2018-02-25T01:51:04.658Z,17.55
2018-02-25T01:52:07.157Z,17.52
2018-02-25T01:53:09.635Z,17.50
2018-02-25T01:54:12.209Z,17.50
2018-02-25T01:55:14.697Z,17.47
2018-02-25T01:56:17.181Z,17.44
2018-02-25T01:57:19.732Z,17.43
2018-02-25T01:58:22.172Z,17.42
2018-02-25T01:59:24.655Z,17.41
2018-02-25T02:00:27.131Z,17.39
2018-02-25T02:01:29.612Z,17.37
2018-02-25T02:02:32.084Z,17.34
2018-02-25T02:03:34.570Z,17.33
2018-02-25T02:04:37.043Z,17.31
2018-02-25T02:05:39.541Z,17.29
2018-02-25T02:06:42.030Z,17.27
2018-02-25T02:07:44.516Z,17.25
2018-02-25T02:08:46.993Z,17.26
2018-02-25T02:09:49.487Z,17.26
2018-02-25T02:10:51.976Z,17.27
2018-02-25T02:11:54.462Z,17.32
2018-02-25T02:12:56.951Z,17.39
2018-02-25T02:13:59.446Z,17.47
2018-02-25T02:15:01.923Z,17.53
2018-02-25T02:16:04.400Z,17.64
2018-02-25T02:17:06.887Z,17.67
2018-02-25T02:18:09.363Z,17.71
2018-02-25T02:19:11.863Z,17.76
2018-02-25T02:20:14.357Z,17.78
2018-02-25T02:21:16.835Z,17.82
2018-02-25T02:22:19.303Z,17.82
2018-02-25T02:23:21.778Z,17.84
2018-02-25T02:24:24.256Z,17.85
2018-02-25T02:25:26.750Z,17.86
2018-02-25T02:26:29.227Z,17.85
2018-02-25T02:27:31.713Z,17.85
2018-02-25T02:28:34.205Z,17.84
2018-02-25T02:29:36.694Z,17.84
2018-02-25T02:30:39.180Z,17.83
2018-02-25T02:31:41.664Z,17.82
2018-02-25T02:32:44.157Z,17.80
2018-02-25T02:33:46.646Z,17.78
2018-02-25T02:34:49.132Z,17.75
2018-02-25T02:35:51.625Z,17.74
2018-02-25T02:36:54.116Z,17.72
2018-02-25T02:37:56.601Z,17.71
2018-02-25T02:38:59.093Z,17.69
2018-02-25T02:40:01.583Z,17.67
2018-02-25T02:41:04.047Z,17.66
2018-02-25T02:42:06.534Z,17.64
2018-02-25T02:43:09.013Z,17.62
2018-02-25T02:44:11.512Z,17.59
2018-02-25T02:45:14.010Z,17.57
2018-02-25T02:46:16.505Z,17.56
2018-02-25T02:47:19.009Z,17.54
2018-02-25T02:48:21.507Z,17.52
2018-02-25T02:49:24.000Z,17.49
2018-02-25T02:50:26.486Z,17.47
2018-02-25T02:51:28.960Z,17.44
2018-02-25T02:52:31.439Z,17.42
2018-02-25T02:53:33.919Z,17.41
2018-02-25T02:54:36.396Z,17.41
2018-02-25T02:55:38.872Z,17.44
2018-02-25T02:56:41.363Z,17.47
2018-02-25T02:57:43.842Z,17.53
2018-02-25T02:58:46.325Z,17.61
2018-02-25T02:59:48.817Z,17.68
2018-02-25T03:00:51.309Z,17.75
2018-02-25T03:01:53.824Z,17.80
2018-02-25T03:02:56.281Z,17.84
2018-02-25T03:03:58.753Z,17.86
2018-02-25T03:05:01.255Z,17.90
2018-02-25T03:06:03.751Z,17.93
2018-02-25T03:07:06.227Z,17.95
2018-02-25T03:08:08.700Z,17.96
2018-02-25T03:09:11.457Z,17.99
2018-02-25T03:10:13.935Z,17.97
2018-02-25T03:11:16.429Z,17.97
2018-02-25T03:12:18.917Z,17.96
2018-02-25T03:13:21.418Z,17.96
2018-02-25T03:14:23.914Z,17.95
2018-02-25T03:15:26.409Z,17.93
2018-02-25T03:16:28.892Z,17.93
2018-02-25T03:17:31.500Z,17.90
2018-02-25T03:18:33.993Z,17.87
2018-02-25T03:19:36.485Z,17.85
2018-02-25T03:20:38.963Z,17.83
2018-02-25T03:21:41.458Z,17.80
2018-02-25T03:22:43.939Z,17.78
2018-02-25T03:23:46.433Z,17.76
2018-02-25T03:24:48.907Z,17.74
2018-02-25T03:25:51.402Z,17.72
2018-02-25T03:26:53.905Z,17.70
2018-02-25T03:27:56.397Z,17.68
2018-02-25T03:28:58.893Z,17.66
2018-02-25T03:30:01.382Z,17.64
2018-02-25T03:31:03.856Z,17.62
2018-02-25T03:32:06.323Z,17.61
2018-02-25T03:33:08.817Z,17.59
2018-02-25T03:34:11.312Z,17.58
2018-02-25T03:35:13.822Z,17.57
2018-02-25T03:36:16.303Z,17.56
2018-02-25T03:37:18.797Z,17.54
2018-02-25T03:38:21.271Z,17.53
2018-02-25T03:39:23.739Z,17.50
2018-02-25T03:40:26.233Z,17.51
2018-02-25T03:41:28.715Z,17.53
2018-02-25T03:42:31.192Z,17.61
2018-02-25T03:43:33.667Z,17.68
2018-02-25T03:44:36.157Z,17.72
2018-02-25T03:45:38.641Z,17.78
2018-02-25T03:46:41.138Z,17.84
2018-02-25T03:47:43.629Z,17.90
2018-02-25T03:48:46.106Z,17.95
2018-02-25T03:49:48.605Z,17.99
2018-02-25T03:50:51.156Z,18.02
2018-02-25T03:51:53.632Z,18.06
2018-02-25T03:52:56.123Z,18.06
2018-02-25T03:53:58.647Z,18.07
2018-02-25T03:55:01.131Z,18.06
2018-02-25T03:56:03.612Z,18.08
2018-02-25T03:57:06.087Z,18.09
2018-02-25T03:58:08.568Z,18.08
2018-02-25T03:59:11.060Z,18.07
2018-02-25T04:00:13.545Z,18.04
2018-02-25T04:01:16.039Z,18.05
2018-02-25T04:02:18.515Z,18.03
2018-02-25T04:03:21.005Z,18.01
2018-02-25T04:04:23.499Z,17.99
2018-02-25T04:05:25.996Z,17.97
2018-02-25T04:06:28.485Z,17.95
2018-02-25T04:07:30.962Z,17.92
2018-02-25T04:08:33.461Z,17.90
2018-02-25T04:09:35.955Z,17.86
2018-02-25T04:10:38.426Z,17.84
2018-02-25T04:11:40.911Z,17.81
2018-02-25T04:12:43.404Z,17.77
2018-02-25T04:13:45.889Z,17.75
2018-02-25T04:14:48.370Z,17.73
2018-02-25T04:15:50.869Z,17.70
2018-02-25T04:16:53.358Z,17.68
2018-02-25T04:17:55.846Z,17.68
2018-02-25T04:18:58.327Z,17.65
2018-02-25T04:20:00.813Z,17.64
2018-02-25T04:21:03.283Z,17.62
2018-02-25T04:22:05.764Z,17.60
2018-02-25T04:23:08.239Z,17.57
2018-02-25T04:24:10.734Z,17.58
2018-02-25T04:25:13.227Z,17.62
2018-02-25T04:26:15.713Z,17.64
2018-02-25T04:27:18.186Z,17.71
2018-02-25T04:28:20.659Z,17.77
2018-02-25T04:29:23.136Z,17.83
2018-02-25T04:30:25.625Z,17.90
2018-02-25T04:31:28.103Z,17.95
2018-02-25T04:32:30.581Z,17.99
2018-02-25T04:33:33.060Z,18.02
2018-02-25T04:34:35.545Z,18.04
2018-02-25T04:35:38.039Z,18.08
2018-02-25T04:36:40.529Z,18.09
2018-02-25T04:37:43.023Z,18.11
2018-02-25T04:38:45.494Z,18.11
2018-02-25T04:39:48.010Z,18.11
2018-02-25T04:40:50.483Z,18.11
2018-02-25T04:41:52.964Z,18.09
2018-02-25T04:42:55.446Z,18.08
2018-02-25T04:43:57.942Z,18.06
2018-02-25T04:45:00.438Z,18.05
2018-02-25T04:46:02.921Z,18.01
2018-02-25T04:47:05.402Z,18.01
2018-02-25T04:48:07.894Z,17.99
2018-02-25T04:49:10.383Z,18.00
2018-02-25T04:50:12.851Z,17.97
2018-02-25T04:51:15.327Z,17.95
2018-02-25T04:52:17.826Z,17.93
2018-02-25T04:53:20.292Z,17.91
2018-02-25T04:54:22.763Z,17.89
2018-02-25T04:55:25.258Z,17.86
2018-02-25T04:56:27.739Z,17.83
2018-02-25T04:57:30.220Z,17.81
2018-02-25T04:58:32.714Z,17.78
2018-02-25T04:59:35.214Z,17.76
2018-02-25T05:00:37.715Z,17.74
2018-02-25T05:01:40.202Z,17.71
2018-02-25T05:02:42.723Z,17.69
2018-02-25T05:03:45.203Z,17.68
2018-02-25T05:04:47.679Z,17.66
2018-02-25T05:05:50.182Z,17.68
2018-02-25T05:06:52.663Z,17.71
2018-02-25T05:07:55.153Z,17.75
2018-02-25T05:08:57.640Z,17.83
2018-02-25T05:10:00.129Z,17.91
2018-02-25T05:11:02.633Z,17.99
2018-02-25T05:12:05.125Z,18.07
2018-02-25T05:13:07.615Z,18.09
2018-02-25T05:14:10.105Z,18.15
2018-02-25T05:15:12.602Z,18.16
2018-02-25T05:16:15.085Z,18.19
2018-02-25T05:17:17.565Z,18.20
2018-02-25T05:18:20.047Z,18.20
2018-02-25T05:19:22.536Z,18.20
2018-02-25T05:20:25.017Z,18.20
2018-02-25T05:21:27.517Z,18.19
2018-02-25T05:22:29.996Z,18.18
2018-02-25T05:23:32.481Z,18.18
2018-02-25T05:24:34.967Z,18.16
2018-02-25T05:25:37.451Z,18.15
2018-02-25T05:26:39.938Z,18.11
2018-02-25T05:27:42.437Z,18.10
2018-02-25T05:28:44.935Z,18.07
2018-02-25T05:29:47.417Z,18.04
2018-02-25T05:30:49.892Z,18.01
2018-02-25T05:31:52.366Z,17.98
2018-02-25T05:32:54.857Z,17.97
2018-02-25T05:33:57.351Z,17.93
2018-02-25T05:34:59.854Z,17.91
2018-02-25T05:36:02.336Z,17.88
2018-02-25T05:37:04.808Z,17.85
2018-02-25T05:38:07.300Z,17.83
2018-02-25T05:39:09.779Z,17.80
2018-02-25T05:40:12.283Z,17.77
2018-02-25T05:41:14.758Z,17.75
2018-02-25T05:42:17.226Z,17.72
2018-02-25T05:43:19.717Z,17.71
2018-02-25T05:44:22.207Z,17.68
2018-02-25T05:45:24.688Z,17.67
2018-02-25T05:46:27.187Z,17.65
2018-02-25T05:47:29.678Z,17.64
2018-02-25T05:48:32.170Z,17.65
2018-02-25T05:49:34.644Z,17.70
2018-02-25T05:50:37.150Z,17.74
2018-02-25T05:51:39.628Z,17.82
2018-02-25T05:52:42.112Z,17.89
2018-02-25T05:53:44.601Z,17.97
2018-02-25T05:54:47.117Z,18.02
2018-02-25T05:55:49.581Z,18.08
2018-02-25T05:56:52.060Z,18.11
2018-02-25T05:57:54.553Z,18.15
2018-02-25T05:58:57.032Z,18.17
2018-02-25T05:59:59.525Z,18.18
2018-02-25T06:01:02.003Z,18.19
2018-02-25T06:02:04.491Z,18.21
2018-02-25T06:03:06.983Z,18.19
2018-02-25T06:04:09.467Z,18.18
2018-02-25T06:05:11.951Z,18.18
2018-02-25T06:06:14.431Z,18.17
2018-02-25T06:07:16.921Z,18.18
2018-02-25T06:08:19.410Z,18.15
2018-02-25T06:09:21.901Z,18.12
2018-02-25T06:10:24.381Z,18.10
2018-02-25T06:11:26.880Z,18.07
2018-02-25T06:12:29.364Z,18.03
2018-02-25T06:13:31.850Z,18.00
2018-02-25T06:14:34.319Z,17.99
2018-02-25T06:15:36.805Z,17.96
2018-02-25T06:16:39.283Z,17.93
2018-02-25T06:17:41.769Z,17.91
2018-02-25T06:18:44.269Z,17.88
2018-02-25T06:19:46.761Z,17.86
2018-02-25T06:20:49.230Z,17.82
2018-02-25T06:21:51.703Z,17.80
2018-02-25T06:22:54.167Z,17.77
2018-02-25T06:23:56.661Z,17.75
2018-02-25T06:24:59.144Z,17.73
2018-02-25T06:26:01.625Z,17.71
2018-02-25T06:27:04.104Z,17.67
2018-02-25T06:28:06.599Z,17.65
2018-02-25T06:29:09.075Z,17.66
2018-02-25T06:30:11.552Z,17.67
2018-02-25T06:31:14.038Z,17.72
2018-02-25T06:32:16.521Z,17.77
2018-02-25T06:33:19.040Z,17.85
2018-02-25T06:34:21.527Z,17.91
2018-02-25T06:35:23.999Z,17.98
2018-02-25T06:36:26.490Z,18.04
2018-02-25T06:37:28.977Z,18.10
2018-02-25T06:38:31.457Z,18.12
2018-02-25T06:39:33.946Z,18.14
2018-02-25T06:40:36.439Z,18.19
2018-02-25T06:41:38.920Z,18.19
2018-02-25T06:42:41.430Z,18.18
2018-02-25T06:43:43.925Z,18.17
2018-02-25T06:44:46.409Z,18.16
2018-02-25T06:45:48.892Z,18.16
2018-02-25T06:46:51.377Z,18.15
2018-02-25T06:47:53.875Z,18.11
2018-02-25T06:48:56.355Z,18.09
2018-02-25T06:49:58.811Z,18.08
2018-02-25T06:51:01.294Z,18.06
2018-02-25T06:52:03.817Z,18.03
2018-02-25T06:53:06.310Z,18.02
2018-02-25T06:54:08.811Z,18.00
2018-02-25T06:55:11.311Z,17.99
2018-02-25T06:56:13.802Z,17.97
2018-02-25T06:57:16.297Z,17.95
2018-02-25T06:58:18.776Z,17.92
2018-02-25T06:59:21.269Z,17.90
2018-02-25T07:00:23.748Z,17.87
2018-02-25T07:01:26.214Z,17.85
2018-02-25T07:02:28.709Z,17.83
2018-02-25T07:03:31.190Z,17.80
2018-02-25T07:04:33.680Z,17.78
2018-02-25T07:05:36.165Z,17.75
2018-02-25T07:06:38.650Z,17.75
2018-02-25T07:07:41.136Z,17.73
2018-02-25T07:08:43.611Z,17.71
2018-02-25T07:09:46.102Z,17.71
2018-02-25T07:10:48.589Z,17.73
2018-02-25T07:11:51.096Z,17.76
2018-02-25T07:12:53.594Z,17.83
2018-02-25T07:13:56.081Z,17.92
2018-02-25T07:14:58.572Z,18.02
2018-02-25T07:16:01.053Z,18.09
2018-02-25T07:17:03.524Z,18.12
2018-02-25T07:18:05.996Z,18.11
2018-02-25T07:19:08.479Z,18.09
2018-02-25T07:20:10.978Z,18.06
2018-02-25T07:21:13.528Z,18.02
2018-02-25T07:22:15.989Z,17.99
2018-02-25T07:23:18.487Z,17.96
2018-02-25T07:24:20.959Z,17.93
2018-02-25T07:25:23.436Z,17.89
2018-02-25T07:26:25.951Z,17.86
2018-02-25T07:27:28.437Z,17.83
2018-02-25T07:28:30.931Z,17.76
2018-02-25T07:29:33.418Z,17.73
2018-02-25T07:30:35.905Z,17.71
2018-02-25T07:31:38.375Z,17.68
2018-02-25T07:32:40.886Z,17.63
2018-02-25T07:33:43.381Z,17.55
2018-02-25T07:34:45.854Z,17.47
2018-02-25T07:35:48.326Z,17.42
2018-02-25T07:36:51.036Z,17.40
2018-02-25T07:37:53.544Z,17.44
2018-02-25T07:38:56.011Z,17.46
2018-02-25T07:39:58.501Z,17.46
2018-02-25T07:41:00.990Z,17.43
2018-02-25T07:42:03.478Z,17.39
2018-02-25T07:43:05.964Z,17.35
2018-02-25T07:44:08.461Z,17.30
2018-02-25T07:45:10.953Z,17.25
2018-02-25T07:46:13.458Z,17.22
2018-02-25T07:47:15.950Z,17.21
2018-02-25T07:48:18.438Z,17.20
2018-02-25T07:49:20.907Z,17.20
2018-02-25T07:50:23.379Z,17.15
2018-02-25T07:51:25.875Z,17.11
2018-02-25T07:52:28.370Z,17.11
2018-02-25T07:53:30.855Z,17.11
2018-02-25T07:54:33.345Z,17.13
2018-02-25T07:55:35.833Z,17.18
2018-02-25T07:56:38.334Z,17.21
2018-02-25T07:57:40.825Z,17.22
2018-02-25T07:58:43.305Z,17.24
2018-02-25T07:59:45.781Z,17.23
2018-02-25T08:00:48.267Z,17.22
2018-02-25T08:01:50.743Z,17.18
2018-02-25T08:02:53.228Z,17.15
2018-02-25T08:03:55.714Z,17.12
2018-02-25T08:04:58.217Z,17.12
2018-02-25T08:06:00.691Z,17.15
2018-02-25T08:07:03.165Z,17.19
2018-02-25T08:08:05.777Z,17.26
2018-02-25T08:09:08.261Z,17.35
2018-02-25T08:10:10.799Z,17.46
2018-02-25T08:11:13.357Z,17.43
2018-02-25T08:12:15.900Z,17.43
2018-02-25T08:13:18.389Z,17.40
2018-02-25T08:14:20.937Z,17.38
2018-02-25T08:15:23.502Z,17.37
2018-02-25T08:16:26.051Z,17.35
2018-02-25T08:17:28.528Z,17.34
2018-02-25T08:18:31.079Z,17.33
2018-02-25T08:19:33.642Z,17.32
2018-02-25T08:20:36.298Z,17.31
2018-02-25T08:21:38.794Z,17.29
2018-02-25T08:22:41.404Z,17.29
2018-02-25T08:23:43.900Z,17.30
2018-02-25T08:24:46.399Z,17.38
2018-02-25T08:25:48.892Z,17.46
2018-02-25T08:26:51.516Z,17.52
2018-02-25T08:27:54.013Z,17.54
2018-02-25T08:28:56.498Z,17.68
2018-02-25T08:29:58.972Z,17.80
2018-02-25T08:31:01.461Z,17.93
2018-02-25T08:32:03.958Z,18.06
2018-02-25T08:33:06.463Z,18.21
2018-02-25T08:34:08.964Z,18.29
2018-02-25T08:35:11.524Z,18.35
2018-02-25T08:36:14.084Z,18.42
2018-02-25T08:37:16.644Z,18.52
2018-02-25T08:38:19.208Z,18.60
2018-02-25T08:39:21.754Z,18.69
2018-02-25T08:40:24.249Z,18.80
2018-02-25T08:41:26.784Z,18.92
2018-02-25T08:42:29.266Z,19.05
2018-02-25T08:43:31.801Z,19.18
2018-02-25T08:44:34.297Z,19.24
2018-02-25T08:45:36.819Z,19.29
2018-02-25T08:46:39.302Z,19.29
2018-02-25T08:47:41.805Z,19.31
2018-02-25T08:48:44.398Z,19.31
2018-02-25T08:49:46.963Z,19.24
2018-02-25T08:50:49.518Z,19.17
2018-02-25T08:51:52.080Z,19.10
2018-02-25T08:52:54.641Z,19.08
2018-02-25T08:53:57.130Z,19.06
2018-02-25T08:54:59.658Z,19.05
2018-02-25T08:56:02.220Z,19.04
2018-02-25T08:57:04.775Z,19.08
2018-02-25T08:58:07.335Z,19.17
2018-02-25T08:59:09.894Z,19.25
2018-02-25T09:00:12.459Z,19.30
2018-02-25T09:01:15.015Z,19.44
2018-02-25T09:02:17.506Z,19.51
2018-02-25T09:03:20.035Z,19.58
2018-02-25T09:04:22.516Z,19.63
2018-02-25T09:05:25.055Z,19.72
2018-02-25T09:06:27.782Z,19.78
2018-02-25T09:07:30.375Z,19.81
2018-02-25T09:08:32.861Z,19.80
2018-02-25T09:09:35.398Z,19.79
2018-02-25T09:10:37.882Z,19.76
2018-02-25T09:11:40.355Z,19.76
2018-02-25T09:12:42.867Z,19.76
2018-02-25T09:13:45.436Z,19.80
2018-02-25T09:14:47.984Z,19.83
2018-02-25T09:15:50.651Z,19.91
2018-02-25T09:16:53.215Z,19.97
2018-02-25T09:17:55.683Z,20.01
2018-02-25T09:18:58.232Z,20.07
2018-02-25T09:20:00.791Z,20.17
2018-02-25T09:21:03.342Z,20.23
2018-02-25T09:22:05.913Z,20.30
2018-02-25T09:23:08.395Z,20.31
2018-02-25T09:24:10.932Z,20.30
2018-02-25T09:25:13.400Z,20.27
2018-02-25T09:26:15.943Z,20.27
2018-02-25T09:27:18.507Z,20.22
2018-02-25T09:28:21.069Z,20.20
2018-02-25T09:29:23.560Z,20.19
2018-02-25T09:30:26.032Z,20.17
2018-02-25T09:31:28.540Z,20.18
2018-02-25T09:32:31.089Z,20.24
2018-02-25T09:33:33.591Z,20.31
2018-02-25T09:34:36.121Z,20.38
2018-02-25T09:35:38.679Z,20.45
2018-02-25T09:36:41.160Z,20.52
2018-02-25T09:37:43.695Z,20.57
2018-02-25T09:38:46.248Z,20.60
2018-02-25T09:39:48.821Z,20.61
2018-02-25T09:40:51.368Z,20.61
2018-02-25T09:41:53.915Z,20.61
2018-02-25T09:42:56.378Z,20.61
2018-02-25T09:43:58.956Z,20.57
2018-02-25T09:45:01.516Z,20.54
2018-02-25T09:46:04.080Z,20.52
2018-02-25T09:47:06.552Z,20.53
2018-02-25T09:48:09.091Z,20.56
2018-02-25T09:49:11.653Z,20.60
2018-02-25T09:50:14.211Z,20.73
2018-02-25T09:51:16.774Z,20.81
2018-02-25T09:52:19.314Z,20.83
2018-02-25T09:53:21.857Z,20.91
2018-02-25T09:54:24.363Z,20.88
2018-02-25T09:55:26.911Z,20.91
2018-02-25T09:56:29.476Z,20.92
2018-02-25T09:57:32.033Z,20.87
2018-02-25T09:58:34.591Z,20.83
2018-02-25T09:59:37.150Z,20.82
2018-02-25T10:00:39.621Z,20.77
2018-02-25T10:01:42.167Z,20.69
2018-02-25T10:02:44.734Z,20.61
2018-02-25T10:03:47.202Z,20.53
2018-02-25T10:04:49.671Z,20.48
2018-02-25T10:05:52.206Z,20.52
2018-02-25T10:06:54.766Z,20.54
2018-02-25T10:07:57.304Z,20.62
2018-02-25T10:08:59.785Z,20.70
2018-02-25T10:10:02.345Z,20.77
2018-02-25T10:11:04.907Z,20.80
2018-02-25T10:12:07.458Z,20.85
2018-02-25T10:13:10.023Z,20.84
2018-02-25T10:14:12.508Z,20.84
2018-02-25T10:15:15.041Z,20.83
2018-02-25T10:16:17.601Z,20.81
2018-02-25T10:17:20.162Z,20.78
2018-02-25T10:18:22.636Z,20.76
2018-02-25T10:19:25.178Z,20.75
2018-02-25T10:20:27.742Z,20.69
2018-02-25T10:21:30.208Z,20.67
2018-02-25T10:22:32.695Z,20.73
2018-02-25T10:23:35.160Z,20.77
2018-02-25T10:24:37.697Z,20.82
2018-02-25T10:25:40.231Z,20.89
2018-02-25T10:26:42.796Z,20.95
2018-02-25T10:27:45.281Z,20.96
2018-02-25T10:28:47.808Z,21.00
2018-02-25T10:29:50.373Z,21.04
2018-02-25T10:30:52.933Z,21.06
2018-02-25T10:31:55.407Z,21.01
2018-02-25T10:32:57.947Z,20.97
2018-02-25T10:34:00.510Z,20.92
2018-02-25T10:35:03.078Z,20.89
2018-02-25T10:36:05.544Z,20.85
2018-02-25T10:37:08.083Z,20.83
2018-02-25T10:38:10.645Z,20.82
2018-02-25T10:39:13.116Z,20.86
2018-02-25T10:40:15.663Z,20.89
2018-02-25T10:41:18.140Z,20.94
2018-02-25T10:42:20.682Z,21.03
2018-02-25T10:43:23.156Z,21.11
2018-02-25T10:44:25.646Z,21.12
2018-02-25T10:45:28.133Z,21.15
2018-02-25T10:46:30.613Z,21.18
2018-02-25T10:47:33.177Z,21.16
2018-02-25T10:48:35.647Z,21.14
2018-02-25T10:49:38.192Z,21.12
2018-02-25T10:50:40.752Z,21.08
2018-02-25T10:51:43.274Z,21.05
2018-02-25T10:52:45.769Z,20.99
2018-02-25T10:53:48.335Z,20.98
2018-02-25T10:54:50.817Z,20.95
2018-02-25T10:55:53.394Z,20.97
2018-02-25T10:56:56.010Z,21.01
2018-02-25T10:57:58.560Z,21.05
2018-02-25T10:59:01.031Z,21.12
2018-02-25T11:00:03.534Z,21.19
2018-02-25T11:01:07.886Z,21.22
2018-02-25T11:02:10.371Z,21.26
2018-02-25T11:03:12.905Z,21.24
2018-02-25T11:04:15.469Z,21.24
2018-02-25T11:05:18.028Z,21.25
2018-02-25T11:06:20.588Z,21.25
2018-02-25T11:07:23.069Z,21.22
2018-02-25T11:08:25.550Z,21.15
2018-02-25T11:09:28.062Z,21.09
2018-02-25T11:10:30.622Z,21.03
2018-02-25T11:11:33.091Z,20.98
2018-02-25T11:12:35.644Z,20.95
2018-02-25T11:13:38.125Z,20.96
2018-02-25T11:14:40.656Z,21.00
2018-02-25T11:15:43.215Z,21.05
2018-02-25T11:16:45.776Z,21.08
2018-02-25T11:17:48.243Z,21.11
2018-02-25T11:18:50.794Z,21.15
2018-02-25T11:19:53.302Z,21.23
2018-02-25T11:20:55.821Z,21.25
2018-02-25T11:21:59.241Z,21.27
2018-02-25T11:23:01.722Z,21.33
2018-02-25T11:24:04.315Z,21.31
2018-02-25T11:25:06.811Z,21.31
2018-02-25T11:26:09.333Z,21.29
2018-02-25T11:27:12.095Z,21.26
2018-02-25T11:28:14.625Z,21.24
2018-02-25T11:29:17.105Z,21.22
2018-02-25T11:30:19.601Z,21.19
2018-02-25T11:31:22.161Z,21.17
2018-02-25T11:32:24.690Z,21.18
2018-02-25T11:33:27.253Z,21.23
2018-02-25T11:34:29.818Z,21.31
2018-02-25T11:35:32.371Z,21.46
2018-02-25T11:36:34.965Z,21.52
2018-02-25T11:37:37.490Z,21.52
2018-02-25T11:38:39.970Z,21.51
2018-02-25T11:39:42.508Z,21.53
2018-02-25T11:40:45.070Z,21.51
2018-02-25T11:41:47.630Z,21.53
2018-02-25T11:42:50.100Z,21.51
2018-02-25T11:43:52.647Z,21.47
2018-02-25T11:44:55.213Z,21.44
2018-02-25T11:45:57.757Z,21.39
2018-02-25T11:47:00.249Z,21.36
2018-02-25T11:48:02.716Z,21.34
2018-02-25T11:49:05.246Z,21.31
2018-02-25T11:50:07.801Z,21.31
2018-02-25T11:51:10.290Z,21.27
2018-02-25T11:52:12.927Z,21.26
2018-02-25T11:53:15.483Z,21.23
2018-02-25T11:54:18.041Z,21.21
2018-02-25T11:55:20.625Z,21.18
2018-02-25T11:56:23.108Z,21.12
2018-02-25T11:57:25.622Z,21.09
2018-02-25T11:58:28.106Z,21.04
2018-02-25T11:59:30.641Z,20.99
2018-02-25T12:00:33.126Z,20.99
2018-02-25T12:01:35.657Z,20.97
2018-02-25T12:02:38.214Z,20.95
2018-02-25T12:03:40.777Z,20.94
2018-02-25T12:04:43.270Z,20.93
2018-02-25T12:05:45.794Z,20.91
2018-02-25T12:06:48.354Z,20.87
2018-02-25T12:07:50.915Z,20.84
2018-02-25T12:08:53.476Z,20.81
2018-02-25T12:09:55.944Z,20.79
2018-02-25T12:10:58.492Z,20.76
2018-02-25T12:12:01.052Z,20.72
2018-02-25T12:13:03.614Z,20.67
2018-02-25T12:14:06.095Z,20.63
2018-02-25T12:15:08.635Z,20.60
2018-02-25T12:16:11.190Z,20.55
2018-02-25T12:17:13.749Z,20.51
2018-02-25T12:18:16.286Z,20.49
2018-02-25T12:19:18.872Z,20.51
2018-02-25T12:20:21.538Z,20.55
2018-02-25T12:21:24.093Z,20.60
2018-02-25T12:22:26.661Z,20.71
2018-02-25T12:23:29.216Z,20.82
2018-02-25T12:24:31.781Z,20.91
2018-02-25T12:25:34.336Z,20.99
2018-02-25T12:26:36.986Z,21.07
2018-02-25T12:27:39.661Z,21.07
2018-02-25T12:28:42.151Z,21.09
2018-02-25T12:29:44.676Z,21.12
2018-02-25T12:30:47.216Z,21.11
2018-02-25T12:31:49.683Z,21.12
2018-02-25T12:32:52.256Z,21.09
2018-02-25T12:33:54.813Z,21.07
2018-02-25T12:34:57.376Z,21.06
2018-02-25T12:36:01.779Z,21.04
2018-02-25T12:37:04.624Z,21.06
2018-02-25T12:38:07.198Z,21.06
2018-02-25T12:39:09.765Z,21.03
2018-02-25T12:40:12.246Z,21.01
2018-02-25T12:41:14.782Z,21.00
2018-02-25T12:42:17.349Z,20.97
2018-02-25T12:43:20.459Z,20.95
2018-02-25T12:44:22.970Z,20.89
2018-02-25T12:45:25.537Z,20.87
2018-02-25T12:46:28.022Z,20.84
2018-02-25T12:47:30.554Z,20.80
2018-02-25T12:48:33.909Z,20.81
2018-02-25T12:49:36.463Z,20.83
2018-02-25T12:50:38.953Z,20.85
2018-02-25T12:51:41.508Z,20.85
2018-02-25T12:52:43.975Z,20.86
2018-02-25T12:53:46.472Z,20.88
2018-02-25T12:54:48.983Z,20.88
2018-02-25T12:55:51.456Z,20.86
2018-02-25T12:56:53.999Z,20.83
2018-02-25T12:57:56.544Z,20.81
2018-02-25T12:58:59.093Z,20.79
2018-02-25T13:00:01.664Z,20.72
2018-02-25T13:01:04.141Z,20.69
2018-02-25T13:02:06.609Z,20.68
2018-02-25T13:03:09.158Z,20.68
2018-02-25T13:04:11.644Z,20.70
2018-02-25T13:05:14.175Z,20.71
2018-02-25T13:06:17.253Z,20.72
2018-02-25T13:07:19.808Z,20.70
2018-02-25T13:08:22.377Z,20.69
2018-02-25T13:09:24.927Z,20.68
2018-02-25T13:10:27.810Z,20.67
2018-02-25T13:11:30.357Z,20.63
2018-02-25T13:12:32.877Z,20.60
2018-02-25T13:13:35.585Z,20.57
2018-02-25T13:14:38.071Z,20.53
2018-02-25T13:15:40.563Z,20.51
2018-02-25T13:16:43.114Z,20.51
2018-02-25T13:17:45.597Z,20.51
2018-02-25T13:18:48.082Z,20.58
2018-02-25T13:19:50.569Z,20.69
2018-02-25T13:20:53.055Z,20.83
2018-02-25T13:21:55.553Z,20.96
2018-02-25T13:22:58.033Z,21.04
2018-02-25T13:24:00.527Z,21.09
2018-02-25T13:25:03.021Z,21.12